sensor_id;sensor_type;location;lat;lon;timestamp;temperature;humidity
16172;DHT22;8192;53.596;10.166;2024-03-25T00:00:15;5.90;99.90
16172;DHT22;8192;53.596;10.166;2024-03-25T00:02:43;6.00;99.90
16172;DHT22;8192;53.596;10.166;2024-03-25T00:05:10;6.00;99.90
16172;DHT22;8192;53.596;10.166;2024-03-25T00:07:37;6.00;99.90
16172;DHT22;8192;53.596;10.166;2024-03-25T00:10:04;6.00;99.90
16172;DHT22;8192;53.596;10.166;2024-03-25T00:12:31;6.00;99.90
16172;DHT22;8192;53.596;10.166;2024-03-25T00:14:57;6.10;99.90
16172;DHT22;8192;53.596;10.166;2024-03-25T00:17:26;6.10;99.90
16172;DHT22;8192;53.596;10.166;2024-03-25T00:19:52;6.00;99.90
16172;DHT22;8192;53.596;10.166;2024-03-25T00:22:19;6.10;99.90
16172;DHT22;8192;53.596;10.166;2024-03-25T00:24:46;6.10;99.90
16172;DHT22;8192;53.596;10.166;2024-03-25T00:27:13;6.10;99.90
16172;DHT22;8192;53.596;10.166;2024-03-25T00:29:39;6.00;99.90
16172;DHT22;8192;53.596;10.166;2024-03-25T00:32:06;6.00;99.90
16172;DHT22;8192;53.596;10.166;2024-03-25T00:34:34;5.90;99.90
16172;DHT22;8192;53.596;10.166;2024-03-25T00:37:01;6.00;99.90
16172;DHT22;8192;53.596;10.166;2024-03-25T00:39:27;6.10;99.90
16172;DHT22;8192;53.596;10.166;2024-03-25T00:41:54;6.10;99.90
16172;DHT22;8192;53.596;10.166;2024-03-25T00:44:21;6.00;99.90
16172;DHT22;8192;53.596;10.166;2024-03-25T00:46:48;6.10;99.90
16172;DHT22;8192;53.596;10.166;2024-03-25T00:49:14;6.10;99.90
16172;DHT22;8192;53.596;10.166;2024-03-25T00:51:42;6.10;99.90
16172;DHT22;8192;53.596;10.166;2024-03-25T00:54:08;6.10;99.90
16172;DHT22;8192;53.596;10.166;2024-03-25T00:56:35;6.10;99.90
16172;DHT22;8192;53.596;10.166;2024-03-25T00:59:02;6.20;99.90
16172;DHT22;8192;53.596;10.166;2024-03-25T01:01:31;6.10;99.90
16172;DHT22;8192;53.596;10.166;2024-03-25T01:03:57;6.10;99.90
16172;DHT22;8192;53.596;10.166;2024-03-25T01:06:24;6.10;99.90
16172;DHT22;8192;53.596;10.166;2024-03-25T01:08:52;6.10;99.90
16172;DHT22;8192;53.596;10.166;2024-03-25T01:11:18;6.20;99.90
16172;DHT22;8192;53.596;10.166;2024-03-25T01:13:44;6.20;99.90
16172;DHT22;8192;53.596;10.166;2024-03-25T01:16:11;6.20;99.90
16172;DHT22;8192;53.596;10.166;2024-03-25T01:18:37;6.20;99.90
16172;DHT22;8192;53.596;10.166;2024-03-25T01:21:05;6.10;99.90
16172;DHT22;8192;53.596;10.166;2024-03-25T01:23:31;6.00;99.90
16172;DHT22;8192;53.596;10.166;2024-03-25T01:26:00;6.00;99.90
16172;DHT22;8192;53.596;10.166;2024-03-25T01:28:26;6.00;99.90
16172;DHT22;8192;53.596;10.166;2024-03-25T01:30:52;6.00;99.90
16172;DHT22;8192;53.596;10.166;2024-03-25T01:33:19;6.10;99.90
16172;DHT22;8192;53.596;10.166;2024-03-25T01:35:46;5.90;99.90
16172;DHT22;8192;53.596;10.166;2024-03-25T01:38:12;6.10;99.90
16172;DHT22;8192;53.596;10.166;2024-03-25T01:40:39;6.00;99.90
16172;DHT22;8192;53.596;10.166;2024-03-25T01:43:06;5.90;99.90
16172;DHT22;8192;53.596;10.166;2024-03-25T01:45:34;5.90;99.90
16172;DHT22;8192;53.596;10.166;2024-03-25T01:48:02;5.90;99.90
16172;DHT22;8192;53.596;10.166;2024-03-25T01:50:31;6.00;99.90
16172;DHT22;8192;53.596;10.166;2024-03-25T01:52:59;6.00;99.90
16172;DHT22;8192;53.596;10.166;2024-03-25T01:55:27;6.00;99.90
16172;DHT22;8192;53.596;10.166;2024-03-25T01:57:54;6.10;99.90
16172;DHT22;8192;53.596;10.166;2024-03-25T02:00:23;6.10;99.90
16172;DHT22;8192;53.596;10.166;2024-03-25T02:02:51;6.10;99.90
16172;DHT22;8192;53.596;10.166;2024-03-25T02:05:19;6.10;99.90
16172;DHT22;8192;53.596;10.166;2024-03-25T02:07:45;6.10;99.90
16172;DHT22;8192;53.596;10.166;2024-03-25T02:10:12;6.00;99.90
16172;DHT22;8192;53.596;10.166;2024-03-25T02:12:40;6.00;99.90
16172;DHT22;8192;53.596;10.166;2024-03-25T02:15:08;6.00;99.90
16172;DHT22;8192;53.596;10.166;2024-03-25T02:17:36;6.10;99.90
16172;DHT22;8192;53.596;10.166;2024-03-25T02:20:05;6.00;99.90
16172;DHT22;8192;53.596;10.166;2024-03-25T02:22:31;6.00;99.90
16172;DHT22;8192;53.596;10.166;2024-03-25T02:24:59;6.00;99.90
16172;DHT22;8192;53.596;10.166;2024-03-25T02:27:28;6.10;99.90
16172;DHT22;8192;53.596;10.166;2024-03-25T02:30:01;6.00;99.90
16172;DHT22;8192;53.596;10.166;2024-03-25T02:32:28;6.00;99.90
16172;DHT22;8192;53.596;10.166;2024-03-25T02:34:57;6.00;99.90
16172;DHT22;8192;53.596;10.166;2024-03-25T02:37:23;6.00;99.90
16172;DHT22;8192;53.596;10.166;2024-03-25T02:39:51;5.90;99.90
16172;DHT22;8192;53.596;10.166;2024-03-25T02:42:17;5.90;99.90
16172;DHT22;8192;53.596;10.166;2024-03-25T02:44:46;6.00;99.90
16172;DHT22;8192;53.596;10.166;2024-03-25T02:47:13;5.90;99.90
16172;DHT22;8192;53.596;10.166;2024-03-25T02:49:39;5.90;99.90
16172;DHT22;8192;53.596;10.166;2024-03-25T02:52:06;5.80;99.90
16172;DHT22;8192;53.596;10.166;2024-03-25T02:54:33;5.80;99.90
16172;DHT22;8192;53.596;10.166;2024-03-25T02:56:59;5.80;99.90
16172;DHT22;8192;53.596;10.166;2024-03-25T02:59:26;5.70;99.90
16172;DHT22;8192;53.596;10.166;2024-03-25T03:01:53;5.60;99.90
16172;DHT22;8192;53.596;10.166;2024-03-25T03:04:20;5.50;99.90
16172;DHT22;8192;53.596;10.166;2024-03-25T03:06:46;5.50;99.90
16172;DHT22;8192;53.596;10.166;2024-03-25T03:09:13;5.40;99.90
16172;DHT22;8192;53.596;10.166;2024-03-25T03:11:39;5.40;99.90
16172;DHT22;8192;53.596;10.166;2024-03-25T03:14:06;5.40;99.90
16172;DHT22;8192;53.596;10.166;2024-03-25T03:16:32;5.30;99.90
16172;DHT22;8192;53.596;10.166;2024-03-25T03:19:00;5.40;99.90
16172;DHT22;8192;53.596;10.166;2024-03-25T03:21:27;5.40;99.90
16172;DHT22;8192;53.596;10.166;2024-03-25T03:23:55;5.40;99.90
16172;DHT22;8192;53.596;10.166;2024-03-25T03:26:21;5.50;99.90
16172;DHT22;8192;53.596;10.166;2024-03-25T03:28:52;5.50;99.90
16172;DHT22;8192;53.596;10.166;2024-03-25T03:31:18;5.50;99.90
16172;DHT22;8192;53.596;10.166;2024-03-25T03:33:47;5.50;99.90
16172;DHT22;8192;53.596;10.166;2024-03-25T03:36:15;5.50;99.90
16172;DHT22;8192;53.596;10.166;2024-03-25T03:38:42;5.50;99.90
16172;DHT22;8192;53.596;10.166;2024-03-25T03:41:09;5.50;99.90
16172;DHT22;8192;53.596;10.166;2024-03-25T03:43:36;5.50;99.90
16172;DHT22;8192;53.596;10.166;2024-03-25T03:46:02;5.60;99.90
16172;DHT22;8192;53.596;10.166;2024-03-25T03:48:31;5.70;99.90
16172;DHT22;8192;53.596;10.166;2024-03-25T03:50:57;5.70;99.90
16172;DHT22;8192;53.596;10.166;2024-03-25T03:53:25;5.70;99.90
16172;DHT22;8192;53.596;10.166;2024-03-25T03:55:54;5.70;99.90
16172;DHT22;8192;53.596;10.166;2024-03-25T03:58:23;5.70;99.90
16172;DHT22;8192;53.596;10.166;2024-03-25T04:00:49;5.70;99.90
16172;DHT22;8192;53.596;10.166;2024-03-25T04:03:16;5.70;99.90
16172;DHT22;8192;53.596;10.166;2024-03-25T04:05:42;5.70;99.90
16172;DHT22;8192;53.596;10.166;2024-03-25T04:08:09;5.80;99.90
16172;DHT22;8192;53.596;10.166;2024-03-25T04:10:37;5.80;99.90
16172;DHT22;8192;53.596;10.166;2024-03-25T04:13:04;5.70;99.90
16172;DHT22;8192;53.596;10.166;2024-03-25T04:15:33;5.70;99.90
16172;DHT22;8192;53.596;10.166;2024-03-25T04:18:00;5.80;99.90
16172;DHT22;8192;53.596;10.166;2024-03-25T04:20:26;5.80;99.90
16172;DHT22;8192;53.596;10.166;2024-03-25T04:22:54;5.70;99.90
16172;DHT22;8192;53.596;10.166;2024-03-25T04:25:20;5.70;99.90
16172;DHT22;8192;53.596;10.166;2024-03-25T04:27:49;5.70;99.90
16172;DHT22;8192;53.596;10.166;2024-03-25T04:30:15;5.70;99.90
16172;DHT22;8192;53.596;10.166;2024-03-25T04:32:42;5.70;99.90
16172;DHT22;8192;53.596;10.166;2024-03-25T04:35:08;5.70;99.90
16172;DHT22;8192;53.596;10.166;2024-03-25T04:37:35;5.70;99.90
16172;DHT22;8192;53.596;10.166;2024-03-25T04:40:01;5.60;99.90
16172;DHT22;8192;53.596;10.166;2024-03-25T04:42:27;5.70;99.90
16172;DHT22;8192;53.596;10.166;2024-03-25T04:44:55;5.70;99.90
16172;DHT22;8192;53.596;10.166;2024-03-25T04:47:21;5.60;99.90
16172;DHT22;8192;53.596;10.166;2024-03-25T04:49:47;5.60;99.90
16172;DHT22;8192;53.596;10.166;2024-03-25T04:52:14;5.70;99.90
16172;DHT22;8192;53.596;10.166;2024-03-25T04:54:41;5.70;99.90
16172;DHT22;8192;53.596;10.166;2024-03-25T04:57:07;5.60;99.90
16172;DHT22;8192;53.596;10.166;2024-03-25T04:59:33;5.70;99.90
16172;DHT22;8192;53.596;10.166;2024-03-25T05:02:01;5.70;99.90
16172;DHT22;8192;53.596;10.166;2024-03-25T05:04:27;5.50;99.90
16172;DHT22;8192;53.596;10.166;2024-03-25T05:06:53;5.60;99.90
16172;DHT22;8192;53.596;10.166;2024-03-25T05:09:19;5.60;99.90
16172;DHT22;8192;53.596;10.166;2024-03-25T05:11:45;5.60;99.90
16172;DHT22;8192;53.596;10.166;2024-03-25T05:14:11;5.60;99.90
16172;DHT22;8192;53.596;10.166;2024-03-25T05:16:37;5.50;99.90
16172;DHT22;8192;53.596;10.166;2024-03-25T05:19:08;5.50;99.90
16172;DHT22;8192;53.596;10.166;2024-03-25T05:21:34;5.50;99.90
16172;DHT22;8192;53.596;10.166;2024-03-25T05:24:00;5.50;99.90
16172;DHT22;8192;53.596;10.166;2024-03-25T05:26:26;5.40;99.90
16172;DHT22;8192;53.596;10.166;2024-03-25T05:28:53;5.50;99.90
16172;DHT22;8192;53.596;10.166;2024-03-25T05:31:19;5.50;99.90
16172;DHT22;8192;53.596;10.166;2024-03-25T05:33:45;5.50;99.90
16172;DHT22;8192;53.596;10.166;2024-03-25T05:36:13;5.50;99.90
16172;DHT22;8192;53.596;10.166;2024-03-25T05:38:39;5.60;99.90
16172;DHT22;8192;53.596;10.166;2024-03-25T05:41:05;5.60;99.90
16172;DHT22;8192;53.596;10.166;2024-03-25T05:43:31;5.70;99.90
16172;DHT22;8192;53.596;10.166;2024-03-25T05:45:57;5.70;99.90
16172;DHT22;8192;53.596;10.166;2024-03-25T05:48:27;5.60;99.90
16172;DHT22;8192;53.596;10.166;2024-03-25T05:51:00;5.60;99.90
16172;DHT22;8192;53.596;10.166;2024-03-25T05:53:28;5.60;99.90
16172;DHT22;8192;53.596;10.166;2024-03-25T05:55:54;5.60;99.90
16172;DHT22;8192;53.596;10.166;2024-03-25T05:58:20;5.70;99.90
16172;DHT22;8192;53.596;10.166;2024-03-25T06:00:47;5.70;99.90
16172;DHT22;8192;53.596;10.166;2024-03-25T06:03:14;5.60;99.90
16172;DHT22;8192;53.596;10.166;2024-03-25T06:05:40;5.70;99.90
16172;DHT22;8192;53.596;10.166;2024-03-25T06:08:07;5.70;99.90
16172;DHT22;8192;53.596;10.166;2024-03-25T06:10:38;5.70;99.90
16172;DHT22;8192;53.596;10.166;2024-03-25T06:13:04;5.80;99.90
16172;DHT22;8192;53.596;10.166;2024-03-25T06:15:30;5.80;99.90
16172;DHT22;8192;53.596;10.166;2024-03-25T06:17:56;5.90;99.90
16172;DHT22;8192;53.596;10.166;2024-03-25T06:20:23;5.90;99.90
16172;DHT22;8192;53.596;10.166;2024-03-25T06:22:49;6.00;99.90
16172;DHT22;8192;53.596;10.166;2024-03-25T06:25:18;6.00;99.90
16172;DHT22;8192;53.596;10.166;2024-03-25T06:27:46;5.90;99.90
16172;DHT22;8192;53.596;10.166;2024-03-25T06:30:12;5.90;99.90
16172;DHT22;8192;53.596;10.166;2024-03-25T06:33:04;5.90;99.90
16172;DHT22;8192;53.596;10.166;2024-03-25T06:35:48;6.10;99.90
16172;DHT22;8192;53.596;10.166;2024-03-25T06:38:14;6.30;99.90
16172;DHT22;8192;53.596;10.166;2024-03-25T06:40:40;6.10;99.90
16172;DHT22;8192;53.596;10.166;2024-03-25T06:43:08;5.90;99.90
16172;DHT22;8192;53.596;10.166;2024-03-25T06:45:34;5.80;99.90
16172;DHT22;8192;53.596;10.166;2024-03-25T06:48:00;5.90;99.90
16172;DHT22;8192;53.596;10.166;2024-03-25T06:50:26;5.90;99.90
16172;DHT22;8192;53.596;10.166;2024-03-25T06:52:52;5.90;99.90
16172;DHT22;8192;53.596;10.166;2024-03-25T06:55:18;5.80;99.90
16172;DHT22;8192;53.596;10.166;2024-03-25T06:57:44;5.90;99.90
16172;DHT22;8192;53.596;10.166;2024-03-25T07:00:14;6.10;99.90
16172;DHT22;8192;53.596;10.166;2024-03-25T07:02:41;6.30;99.90
16172;DHT22;8192;53.596;10.166;2024-03-25T07:05:19;6.40;99.90
16172;DHT22;8192;53.596;10.166;2024-03-25T07:07:45;6.70;99.90
16172;DHT22;8192;53.596;10.166;2024-03-25T07:10:11;6.70;99.90
16172;DHT22;8192;53.596;10.166;2024-03-25T07:12:37;6.60;99.90
16172;DHT22;8192;53.596;10.166;2024-03-25T07:15:04;6.40;99.90
16172;DHT22;8192;53.596;10.166;2024-03-25T07:17:31;6.40;99.90
16172;DHT22;8192;53.596;10.166;2024-03-25T07:19:57;6.30;99.90
16172;DHT22;8192;53.596;10.166;2024-03-25T07:22:23;6.10;99.90
16172;DHT22;8192;53.596;10.166;2024-03-25T07:24:49;6.10;99.90
16172;DHT22;8192;53.596;10.166;2024-03-25T07:27:16;6.20;99.90
16172;DHT22;8192;53.596;10.166;2024-03-25T07:29:41;6.10;99.90
16172;DHT22;8192;53.596;10.166;2024-03-25T07:32:08;6.00;99.90
16172;DHT22;8192;53.596;10.166;2024-03-25T07:34:35;6.00;99.90
16172;DHT22;8192;53.596;10.166;2024-03-25T07:37:01;6.30;99.90
16172;DHT22;8192;53.596;10.166;2024-03-25T07:39:31;6.40;99.90
16172;DHT22;8192;53.596;10.166;2024-03-25T07:41:57;6.50;99.90
16172;DHT22;8192;53.596;10.166;2024-03-25T07:44:23;6.40;99.90
16172;DHT22;8192;53.596;10.166;2024-03-25T07:46:49;6.50;99.90
16172;DHT22;8192;53.596;10.166;2024-03-25T07:49:15;6.60;99.90
16172;DHT22;8192;53.596;10.166;2024-03-25T07:51:45;6.70;99.90
16172;DHT22;8192;53.596;10.166;2024-03-25T07:54:12;6.60;99.90
16172;DHT22;8192;53.596;10.166;2024-03-25T07:56:38;6.90;99.90
16172;DHT22;8192;53.596;10.166;2024-03-25T07:59:04;7.00;99.90
16172;DHT22;8192;53.596;10.166;2024-03-25T08:01:30;7.10;99.90
16172;DHT22;8192;53.596;10.166;2024-03-25T08:03:56;7.00;99.90
16172;DHT22;8192;53.596;10.166;2024-03-25T08:06:22;7.00;99.90
16172;DHT22;8192;53.596;10.166;2024-03-25T08:08:50;7.10;99.90
16172;DHT22;8192;53.596;10.166;2024-03-25T08:11:16;7.20;99.90
16172;DHT22;8192;53.596;10.166;2024-03-25T08:13:42;7.00;99.90
16172;DHT22;8192;53.596;10.166;2024-03-25T08:16:08;7.10;99.90
16172;DHT22;8192;53.596;10.166;2024-03-25T08:18:34;7.10;99.90
16172;DHT22;8192;53.596;10.166;2024-03-25T08:21:00;7.00;99.90
16172;DHT22;8192;53.596;10.166;2024-03-25T08:23:27;7.10;99.90
16172;DHT22;8192;53.596;10.166;2024-03-25T08:25:54;6.90;99.90
16172;DHT22;8192;53.596;10.166;2024-03-25T08:28:20;6.90;99.90
16172;DHT22;8192;53.596;10.166;2024-03-25T08:30:46;7.00;99.90
16172;DHT22;8192;53.596;10.166;2024-03-25T08:33:12;7.10;99.90
16172;DHT22;8192;53.596;10.166;2024-03-25T08:35:38;7.00;99.90
16172;DHT22;8192;53.596;10.166;2024-03-25T08:38:05;6.80;99.90
16172;DHT22;8192;53.596;10.166;2024-03-25T08:40:31;6.70;99.90
16172;DHT22;8192;53.596;10.166;2024-03-25T08:42:58;6.90;99.90
16172;DHT22;8192;53.596;10.166;2024-03-25T08:45:25;6.90;99.90
16172;DHT22;8192;53.596;10.166;2024-03-25T08:47:52;7.00;99.90
16172;DHT22;8192;53.596;10.166;2024-03-25T08:50:17;6.90;99.90
16172;DHT22;8192;53.596;10.166;2024-03-25T08:52:43;6.70;99.90
16172;DHT22;8192;53.596;10.166;2024-03-25T08:55:09;6.80;99.90
16172;DHT22;8192;53.596;10.166;2024-03-25T08:57:35;6.90;99.90
16172;DHT22;8192;53.596;10.166;2024-03-25T09:00:03;7.00;99.90
16172;DHT22;8192;53.596;10.166;2024-03-25T09:02:29;7.00;99.90
16172;DHT22;8192;53.596;10.166;2024-03-25T09:04:55;7.10;99.90
16172;DHT22;8192;53.596;10.166;2024-03-25T09:07:22;7.10;99.90
16172;DHT22;8192;53.596;10.166;2024-03-25T09:09:48;7.30;99.90
16172;DHT22;8192;53.596;10.166;2024-03-25T09:12:28;7.50;99.90
16172;DHT22;8192;53.596;10.166;2024-03-25T09:14:54;7.70;99.90
16172;DHT22;8192;53.596;10.166;2024-03-25T09:17:22;7.90;99.90
16172;DHT22;8192;53.596;10.166;2024-03-25T09:19:49;7.90;99.90
16172;DHT22;8192;53.596;10.166;2024-03-25T09:22:15;7.70;99.90
16172;DHT22;8192;53.596;10.166;2024-03-25T09:24:41;7.40;99.90
16172;DHT22;8192;53.596;10.166;2024-03-25T09:27:07;7.20;99.90
16172;DHT22;8192;53.596;10.166;2024-03-25T09:29:33;7.20;99.90
16172;DHT22;8192;53.596;10.166;2024-03-25T09:31:59;7.50;99.90
16172;DHT22;8192;53.596;10.166;2024-03-25T09:34:27;7.60;99.90
16172;DHT22;8192;53.596;10.166;2024-03-25T09:36:53;7.80;99.90
16172;DHT22;8192;53.596;10.166;2024-03-25T09:39:19;8.20;99.90
16172;DHT22;8192;53.596;10.166;2024-03-25T09:41:46;8.30;99.90
16172;DHT22;8192;53.596;10.166;2024-03-25T09:44:13;8.50;99.90
16172;DHT22;8192;53.596;10.166;2024-03-25T09:46:39;8.50;99.90
16172;DHT22;8192;53.596;10.166;2024-03-25T09:49:05;8.70;99.90
16172;DHT22;8192;53.596;10.166;2024-03-25T09:51:33;8.90;99.90
16172;DHT22;8192;53.596;10.166;2024-03-25T09:54:01;8.50;99.90
16172;DHT22;8192;53.596;10.166;2024-03-25T09:56:27;8.50;99.90
16172;DHT22;8192;53.596;10.166;2024-03-25T09:58:54;8.50;99.90
16172;DHT22;8192;53.596;10.166;2024-03-25T10:01:20;8.80;99.90
16172;DHT22;8192;53.596;10.166;2024-03-25T10:03:46;9.20;99.90
16172;DHT22;8192;53.596;10.166;2024-03-25T10:06:12;9.20;99.90
16172;DHT22;8192;53.596;10.166;2024-03-25T10:08:39;9.30;99.90
16172;DHT22;8192;53.596;10.166;2024-03-25T10:11:06;9.10;99.90
16172;DHT22;8192;53.596;10.166;2024-03-25T10:13:32;9.20;99.90
16172;DHT22;8192;53.596;10.166;2024-03-25T10:15:58;9.10;99.90
16172;DHT22;8192;53.596;10.166;2024-03-25T10:18:25;9.10;99.90
16172;DHT22;8192;53.596;10.166;2024-03-25T10:20:51;8.60;99.90
16172;DHT22;8192;53.596;10.166;2024-03-25T10:23:20;8.10;99.90
16172;DHT22;8192;53.596;10.166;2024-03-25T10:25:48;7.60;99.90
16172;DHT22;8192;53.596;10.166;2024-03-25T10:28:14;7.30;99.90
16172;DHT22;8192;53.596;10.166;2024-03-25T10:30:41;7.30;99.90
16172;DHT22;8192;53.596;10.166;2024-03-25T10:33:08;7.30;99.90
16172;DHT22;8192;53.596;10.166;2024-03-25T10:35:35;7.40;99.90
16172;DHT22;8192;53.596;10.166;2024-03-25T10:38:03;7.50;99.90
16172;DHT22;8192;53.596;10.166;2024-03-25T10:40:30;7.70;99.90
16172;DHT22;8192;53.596;10.166;2024-03-25T10:43:01;7.70;99.90
16172;DHT22;8192;53.596;10.166;2024-03-25T10:45:29;8.00;99.90
16172;DHT22;8192;53.596;10.166;2024-03-25T10:47:58;8.50;99.90
16172;DHT22;8192;53.596;10.166;2024-03-25T10:50:29;8.60;99.90
16172;DHT22;8192;53.596;10.166;2024-03-25T10:52:57;8.80;99.90
16172;DHT22;8192;53.596;10.166;2024-03-25T10:55:24;9.10;99.90
16172;DHT22;8192;53.596;10.166;2024-03-25T10:57:52;9.10;99.90
16172;DHT22;8192;53.596;10.166;2024-03-25T11:00:22;9.10;99.90
16172;DHT22;8192;53.596;10.166;2024-03-25T11:02:48;9.10;99.90
16172;DHT22;8192;53.596;10.166;2024-03-25T11:05:17;9.30;99.90
16172;DHT22;8192;53.596;10.166;2024-03-25T11:07:43;9.50;99.90
16172;DHT22;8192;53.596;10.166;2024-03-25T11:10:11;9.20;99.90
16172;DHT22;8192;53.596;10.166;2024-03-25T11:12:40;8.70;99.90
16172;DHT22;8192;53.596;10.166;2024-03-25T11:15:07;8.60;99.90
16172;DHT22;8192;53.596;10.166;2024-03-25T11:17:34;8.50;99.90
16172;DHT22;8192;53.596;10.166;2024-03-25T11:20:11;8.30;99.90
16172;DHT22;8192;53.596;10.166;2024-03-25T11:22:48;8.30;99.90
16172;DHT22;8192;53.596;10.166;2024-03-25T11:25:14;8.50;99.90
16172;DHT22;8192;53.596;10.166;2024-03-25T11:27:43;8.50;99.90
16172;DHT22;8192;53.596;10.166;2024-03-25T11:30:10;8.60;99.90
16172;DHT22;8192;53.596;10.166;2024-03-25T11:32:52;8.80;99.90
16172;DHT22;8192;53.596;10.166;2024-03-25T11:35:19;9.10;99.90
16172;DHT22;8192;53.596;10.166;2024-03-25T11:37:45;9.40;99.90
16172;DHT22;8192;53.596;10.166;2024-03-25T11:40:13;9.60;99.90
16172;DHT22;8192;53.596;10.166;2024-03-25T11:42:41;9.80;99.90
16172;DHT22;8192;53.596;10.166;2024-03-25T11:45:09;9.50;99.90
16172;DHT22;8192;53.596;10.166;2024-03-25T11:47:42;9.40;99.90
16172;DHT22;8192;53.596;10.166;2024-03-25T11:50:12;9.50;99.90
16172;DHT22;8192;53.596;10.166;2024-03-25T11:52:39;9.50;99.90
16172;DHT22;8192;53.596;10.166;2024-03-25T11:55:06;9.50;99.90
16172;DHT22;8192;53.596;10.166;2024-03-25T11:57:33;9.50;99.90
16172;DHT22;8192;53.596;10.166;2024-03-25T12:00:00;9.20;99.90
16172;DHT22;8192;53.596;10.166;2024-03-25T12:02:27;9.30;99.90
16172;DHT22;8192;53.596;10.166;2024-03-25T12:04:53;9.40;99.90
16172;DHT22;8192;53.596;10.166;2024-03-25T12:07:20;9.50;99.90
16172;DHT22;8192;53.596;10.166;2024-03-25T12:09:46;9.70;99.90
16172;DHT22;8192;53.596;10.166;2024-03-25T12:12:32;9.90;99.90
16172;DHT22;8192;53.596;10.166;2024-03-25T12:14:59;10.20;99.90
16172;DHT22;8192;53.596;10.166;2024-03-25T12:17:25;10.30;99.90
16172;DHT22;8192;53.596;10.166;2024-03-25T12:20:02;10.80;99.90
16172;DHT22;8192;53.596;10.166;2024-03-25T12:22:32;10.50;99.90
16172;DHT22;8192;53.596;10.166;2024-03-25T12:24:59;10.60;99.90
16172;DHT22;8192;53.596;10.166;2024-03-25T12:27:27;10.30;99.90
16172;DHT22;8192;53.596;10.166;2024-03-25T12:29:58;10.20;99.90
16172;DHT22;8192;53.596;10.166;2024-03-25T12:32:31;10.10;99.90
16172;DHT22;8192;53.596;10.166;2024-03-25T12:34:58;9.90;99.90
16172;DHT22;8192;53.596;10.166;2024-03-25T12:37:26;9.80;99.90
16172;DHT22;8192;53.596;10.166;2024-03-25T12:39:53;9.80;99.90
16172;DHT22;8192;53.596;10.166;2024-03-25T12:42:20;10.00;99.90
16172;DHT22;8192;53.596;10.166;2024-03-25T12:44:46;9.90;99.90
16172;DHT22;8192;53.596;10.166;2024-03-25T12:47:12;9.90;99.90
16172;DHT22;8192;53.596;10.166;2024-03-25T12:49:38;10.30;99.90
16172;DHT22;8192;53.596;10.166;2024-03-25T12:52:05;10.30;99.90
16172;DHT22;8192;53.596;10.166;2024-03-25T12:54:32;10.10;99.90
16172;DHT22;8192;53.596;10.166;2024-03-25T12:56:59;9.90;99.90
16172;DHT22;8192;53.596;10.166;2024-03-25T12:59:25;10.00;99.90
16172;DHT22;8192;53.596;10.166;2024-03-25T13:01:51;9.90;99.90
16172;DHT22;8192;53.596;10.166;2024-03-25T13:04:18;10.00;99.90
16172;DHT22;8192;53.596;10.166;2024-03-25T13:06:44;10.10;99.90
16172;DHT22;8192;53.596;10.166;2024-03-25T13:09:10;10.30;99.90
16172;DHT22;8192;53.596;10.166;2024-03-25T13:11:36;10.60;99.90
16172;DHT22;8192;53.596;10.166;2024-03-25T13:14:04;10.60;99.90
16172;DHT22;8192;53.596;10.166;2024-03-25T13:16:31;10.70;99.90
16172;DHT22;8192;53.596;10.166;2024-03-25T13:18:58;11.10;99.90
16172;DHT22;8192;53.596;10.166;2024-03-25T13:21:24;11.20;99.90
16172;DHT22;8192;53.596;10.166;2024-03-25T13:23:51;11.20;99.90
16172;DHT22;8192;53.596;10.166;2024-03-25T13:26:17;11.20;99.90
16172;DHT22;8192;53.596;10.166;2024-03-25T13:28:43;11.30;99.90
16172;DHT22;8192;53.596;10.166;2024-03-25T13:31:10;11.30;99.90
16172;DHT22;8192;53.596;10.166;2024-03-25T13:33:37;10.80;99.90
16172;DHT22;8192;53.596;10.166;2024-03-25T13:36:04;10.40;99.90
16172;DHT22;8192;53.596;10.166;2024-03-25T13:38:30;10.10;99.90
16172;DHT22;8192;53.596;10.166;2024-03-25T13:40:56;9.90;99.90
16172;DHT22;8192;53.596;10.166;2024-03-25T13:43:22;10.00;99.90
16172;DHT22;8192;53.596;10.166;2024-03-25T13:45:49;9.80;99.90
16172;DHT22;8192;53.596;10.166;2024-03-25T13:48:16;10.00;99.90
16172;DHT22;8192;53.596;10.166;2024-03-25T13:50:43;10.10;99.90
16172;DHT22;8192;53.596;10.166;2024-03-25T13:53:09;9.70;99.90
16172;DHT22;8192;53.596;10.166;2024-03-25T13:55:35;9.60;99.90
16172;DHT22;8192;53.596;10.166;2024-03-25T13:58:01;9.40;99.90
16172;DHT22;8192;53.596;10.166;2024-03-25T14:00:27;9.50;99.90
16172;DHT22;8192;53.596;10.166;2024-03-25T14:02:54;9.50;99.90
16172;DHT22;8192;53.596;10.166;2024-03-25T14:05:21;9.60;99.90
16172;DHT22;8192;53.596;10.166;2024-03-25T14:07:48;9.80;99.90
16172;DHT22;8192;53.596;10.166;2024-03-25T14:10:14;10.00;99.90
16172;DHT22;8192;53.596;10.166;2024-03-25T14:12:41;10.20;99.90
16172;DHT22;8192;53.596;10.166;2024-03-25T14:15:08;10.40;99.90
16172;DHT22;8192;53.596;10.166;2024-03-25T14:17:34;10.20;99.90
16172;DHT22;8192;53.596;10.166;2024-03-25T14:20:00;10.50;99.90
16172;DHT22;8192;53.596;10.166;2024-03-25T14:22:28;10.40;99.90
16172;DHT22;8192;53.596;10.166;2024-03-25T14:24:54;10.50;99.90
16172;DHT22;8192;53.596;10.166;2024-03-25T14:27:22;10.50;99.90
16172;DHT22;8192;53.596;10.166;2024-03-25T14:29:48;11.00;99.90
16172;DHT22;8192;53.596;10.166;2024-03-25T14:32:14;11.80;99.90
16172;DHT22;8192;53.596;10.166;2024-03-25T14:34:42;12.20;99.90
16172;DHT22;8192;53.596;10.166;2024-03-25T14:37:09;12.60;99.90
16172;DHT22;8192;53.596;10.166;2024-03-25T14:39:37;12.40;99.90
16172;DHT22;8192;53.596;10.166;2024-03-25T14:42:03;11.90;99.90
16172;DHT22;8192;53.596;10.166;2024-03-25T14:44:30;11.20;99.90
16172;DHT22;8192;53.596;10.166;2024-03-25T14:46:56;11.20;99.90
16172;DHT22;8192;53.596;10.166;2024-03-25T14:49:23;11.20;99.90
16172;DHT22;8192;53.596;10.166;2024-03-25T14:51:49;10.90;99.90
16172;DHT22;8192;53.596;10.166;2024-03-25T14:54:17;10.40;99.90
16172;DHT22;8192;53.596;10.166;2024-03-25T14:56:45;10.30;99.90
16172;DHT22;8192;53.596;10.166;2024-03-25T14:59:11;10.70;99.90
16172;DHT22;8192;53.596;10.166;2024-03-25T15:01:37;11.70;99.90
16172;DHT22;8192;53.596;10.166;2024-03-25T15:04:04;12.60;99.90
16172;DHT22;8192;53.596;10.166;2024-03-25T15:06:30;13.10;99.90
16172;DHT22;8192;53.596;10.166;2024-03-25T15:08:57;13.70;99.90
16172;DHT22;8192;53.596;10.166;2024-03-25T15:11:23;14.40;99.90
16172;DHT22;8192;53.596;10.166;2024-03-25T15:13:51;14.60;97.60
16172;DHT22;8192;53.596;10.166;2024-03-25T15:16:17;14.20;95.90
16172;DHT22;8192;53.596;10.166;2024-03-25T15:18:43;13.90;96.00
16172;DHT22;8192;53.596;10.166;2024-03-25T15:21:09;13.40;98.10
16172;DHT22;8192;53.596;10.166;2024-03-25T15:23:36;13.50;97.20
16172;DHT22;8192;53.596;10.166;2024-03-25T15:26:04;13.90;95.70
16172;DHT22;8192;53.596;10.166;2024-03-25T15:28:31;13.40;94.10
16172;DHT22;8192;53.596;10.166;2024-03-25T15:30:58;13.60;94.10
16172;DHT22;8192;53.596;10.166;2024-03-25T15:33:25;13.10;95.40
16172;DHT22;8192;53.596;10.166;2024-03-25T15:35:51;12.70;96.40
16172;DHT22;8192;53.596;10.166;2024-03-25T15:41:32;12.30;98.40
16172;DHT22;8192;53.596;10.166;2024-03-25T15:43:58;12.60;98.50